Time;durP1;ratioP1;P1;durP2;ratioP2;P2;SDS_P1;SDS_P2;PMS_P1;PMS_P2;Temp;Humidity;BMP_temperature;BMP_pressure;BME280_temperature;BME280_humidity;BME280_pressure;Samples;Min_cycle;Max_cycle;Signal;HPM_P1;HPM_P2
2022/12/17 13:06:10;;;;;;;114.57;56.38;;;-1.50;99.90;;;-2.55;100.00;98179.59;5052356;28;20451;-76
2022/12/17 13:08:36;;;;;;;91.72;50.60;;;-1.20;99.90;;;-2.23;100.00;98171.28;5052461;28;20409;-76
2022/12/17 13:11:26;;;;;;;72.93;42.22;;;-0.90;99.90;;;-1.80;100.00;98170.41;5052422;28;20463;-76
2022/12/17 13:13:57;;;;;;;74.68;44.83;;;-0.50;99.90;;;-1.19;100.00;98168.41;5050729;28;20881;-76
2022/12/17 13:16:34;;;;;;;64.35;39.92;;;0.00;99.90;;;-0.72;100.00;98160.06;5051131;28;20413;-75
2022/12/17 13:19:20;;;;;;;63.47;37.90;;;0.50;99.90;;;-0.64;100.00;98154.06;5034223;28;20911;-75
2022/12/17 13:21:46;;;;;;;60.58;36.70;;;0.70;99.90;;;-0.78;100.00;98152.94;5051596;28;20404;-76
2022/12/17 13:24:24;;;;;;;59.33;36.47;;;0.60;99.90;;;-0.95;100.00;98164.25;5052228;28;20451;-76
2022/12/17 13:26:51;;;;;;;63.33;37.72;;;0.40;99.90;;;-0.94;100.00;98164.09;5051240;28;20409;-76
2022/12/17 13:29:28;;;;;;;68.60;40.80;;;0.40;99.90;;;-1.07;100.00;98163.75;5034361;28;20404;-75
2022/12/17 13:32:18;;;;;;;77.28;44.67;;;0.30;99.90;;;-1.21;100.00;98162.59;5051300;28;20458;-74
2022/12/17 13:35:16;;;;;;;99.22;54.72;;;0.10;99.90;;;-1.54;100.00;98165.19;5051750;28;20409;-76
2022/12/17 13:37:53;;;;;;;104.53;54.95;;;-0.10;99.90;;;-1.93;100.00;98164.81;5050730;28;20902;-76
2022/12/17 13:40:33;;;;;;;98.43;49.78;;;-0.50;99.90;;;-2.26;100.00;98169.00;5051985;28;20500;-75
2022/12/17 13:43:00;;;;;;;96.78;47.90;;;-0.80;99.90;;;-2.52;100.00;98164.56;5051228;28;20420;-74
2022/12/17 13:45:26;;;;;;;98.90;48.03;;;-1.10;99.90;;;-2.72;100.00;98165.72;5052101;28;20432;-74
2022/12/17 13:47:54;;;;;;;102.68;46.45;;;-1.20;99.90;;;-2.92;100.00;98157.25;5051864;28;20399;-74
2022/12/17 13:50:25;;;;;;;98.77;45.27;;;-1.40;99.90;;;-3.04;100.00;98165.38;5051777;28;20402;-76
2022/12/17 13:52:51;;;;;;;99.78;45.90;;;-1.60;99.90;;;-3.17;100.00;98168.34;5033010;28;20409;-75
2022/12/17 13:55:20;;;;;;;105.30;45.13;;;-1.60;99.90;;;-3.27;100.00;98177.91;5051852;28;20427;-75
2022/12/17 13:57:48;;;;;;;115.63;50.83;;;-1.80;99.90;;;-3.38;100.00;98173.75;5051663;28;20502;-75
2022/12/17 14:00:23;;;;;;;135.50;57.00;;;-1.80;99.90;;;-3.49;100.00;98171.34;5051676;28;20408;-75
2022/12/17 14:02:51;;;;;;;151.10;63.33;;;-1.90;99.90;;;-3.56;100.00;98173.69;5049241;28;20413;-75
2022/12/17 14:05:29;;;;;;;157.07;64.40;;;-2.00;99.90;;;-3.65;100.00;98182.31;5051343;28;20914;-75
2022/12/17 14:08:00;;;;;;;140.30;58.27;;;-2.10;99.90;;;-3.74;100.00;98183.16;5051278;28;20436;-75
2022/12/17 14:10:27;;;;;;;171.07;68.00;;;-2.10;99.90;;;-3.82;100.00;98190.00;5051352;28;20402;-75
2022/12/17 14:13:04;;;;;;;159.45;61.03;;;-2.20;99.90;;;-3.90;100.00;98198.44;5050442;28;20808;-75
2022/12/17 14:15:30;;;;;;;146.88;60.38;;;-2.30;99.90;;;-3.98;100.00;98196.56;5049921;28;20432;-75
2022/12/17 14:17:58;;;;;;;158.02;63.03;;;-2.40;99.90;;;-4.03;100.00;98196.19;5051012;28;20405;-75
2022/12/17 14:20:29;;;;;;;137.80;54.10;;;-2.40;99.90;;;-4.09;100.00;98199.31;5033275;28;20412;-75
2022/12/17 14:23:00;;;;;;;215.25;76.55;;;-2.50;99.90;;;-4.14;100.00;98196.34;5050266;28;20890;-75
2022/12/17 14:25:29;;;;;;;177.53;71.53;;;-2.50;99.90;;;-4.21;100.00;98203.00;5051151;28;20483;-75
2022/12/17 14:27:59;;;;;;;163.18;63.05;;;-2.60;99.90;;;-4.26;100.00;98206.97;5050964;28;20409;-75
2022/12/17 14:30:37;;;;;;;135.98;52.85;;;-2.70;99.90;;;-4.33;100.00;98209.28;5050844;28;20393;-75
2022/12/17 14:33:03;;;;;;;167.50;59.23;;;-2.70;99.90;;;-4.39;100.00;98212.41;5050002;28;20736;-75
2022/12/17 14:35:36;;;;;;;141.02;53.05;;;-2.70;99.90;;;-4.43;100.00;98211.03;5050706;28;20423;-75
2022/12/17 14:38:03;;;;;;;176.68;62.40;;;-2.80;99.90;;;-4.49;100.00;98209.00;5050580;28;20428;-75
2022/12/17 14:40:29;;;;;;;178.45;64.45;;;-2.80;99.90;;;-4.55;100.00;98212.97;5050578;28;20406;-75
2022/12/17 14:42:59;;;;;;;218.50;77.00;;;-2.90;99.90;;;-4.63;100.00;98214.59;5049847;28;20412;-74
2022/12/17 14:45:27;;;;;;;244.95;86.32;;;-3.00;99.90;;;-4.74;100.00;98215.56;5050680;28;20898;-75
2022/12/17 14:47:54;;;;;;;212.57;78.95;;;-3.00;99.90;;;-4.82;100.00;98218.81;5050622;28;20397;-75
2022/12/17 14:50:29;;;;;;;193.18;71.05;;;-3.20;99.90;;;-4.90;100.00;98218.66;5049369;28;20492;-75
2022/12/17 14:52:59;;;;;;;204.90;74.63;;;-3.20;99.90;;;-4.97;100.00;98219.31;5049688;28;20778;-75
2022/12/17 14:55:33;;;;;;;212.38;72.72;;;-3.30;99.90;;;-5.04;100.00;98213.88;5050439;28;20413;-75
2022/12/17 14:58:19;;;;;;;177.85;66.50;;;-3.30;99.90;;;-5.14;100.00;98219.00;5050452;28;20779;-75
2022/12/17 15:01:03;;;;;;;197.40;68.67;;;-3.50;99.90;;;-5.20;100.00;98223.88;5050460;28;20910;-75
2022/12/17 15:03:32;;;;;;;207.38;71.20;;;-3.50;99.90;;;-5.31;100.00;98217.03;5046658;28;20441;-75
2022/12/17 15:06:01;;;;;;;178.98;64.90;;;-3.60;99.90;;;-5.40;100.00;98209.28;5045298;28;20443;-74
2022/12/17 15:08:32;;;;;;;199.80;71.80;;;-3.60;99.90;;;-5.48;100.00;98226.22;5045046;28;20405;-75
2022/12/17 15:10:57;;;;;;;202.88;76.93;;;-3.70;99.90;;;-5.59;100.00;98216.00;5043620;28;20779;-75
2022/12/17 15:13:23;;;;;;;212.13;76.20;;;-3.80;99.90;;;-5.64;100.00;98222.50;5041256;28;20403;-76
2022/12/17 15:15:49;;;;;;;189.27;69.17;;;-3.90;99.90;;;-5.73;100.00;98223.28;5039868;28;20424;-76
2022/12/17 15:18:15;;;;;;;180.70;66.55;;;-4.00;99.90;;;-5.79;100.00;98223.78;5020057;28;20438;-75
2022/12/17 15:20:41;;;;;;;192.67;70.57;;;-4.00;99.90;;;-5.88;100.00;98226.22;5014992;28;20415;-75
2022/12/17 15:23:14;;;;;;;180.07;67.63;;;-4.10;99.90;;;-5.94;100.00;98228.50;5036855;28;20394;-74
2022/12/17 15:25:42;;;;;;;182.90;67.65;;;-4.20;99.90;;;-6.03;100.00;98221.50;5045486;28;20871;-75
2022/12/17 15:28:09;;;;;;;183.45;68.05;;;-4.20;99.90;;;-6.08;100.00;98228.78;5041416;28;20402;-75
2022/12/17 15:30:36;;;;;;;199.55;77.68;;;-4.30;99.90;;;-6.15;100.00;98227.66;5040969;28;20500;-74
2022/12/17 15:33:05;;;;;;;186.30;66.73;;;-4.40;99.90;;;-6.21;100.00;98234.13;5042304;28;20508;-74
2022/12/17 15:35:31;;;;;;;172.77;63.50;;;-4.40;99.90;;;-6.26;100.00;98244.00;5037354;28;20418;-72
2022/12/17 15:37:57;;;;;;;199.67;71.03;;;-4.50;99.90;;;-6.32;100.00;98244.50;5040132;28;20779;-71
2022/12/17 15:40:23;;;;;;;195.98;70.10;;;-4.50;99.90;;;-6.38;100.00;98237.25;5045933;28;20398;-75
2022/12/17 15:45:36;;;;;;;191.90;67.18;;;-4.60;99.90;;;-6.50;100.00;98240.84;5044353;28;20448;-78
2022/12/17 15:48:02;;;;;;;211.00;69.13;;;-4.70;99.90;;;-6.56;100.00;98244.72;5047394;28;20417;-77
2022/12/17 15:50:28;;;;;;;177.38;63.40;;;-4.70;99.90;;;-6.68;100.00;98238.78;5049344;28;20484;-78
2022/12/17 15:52:54;;;;;;;164.45;63.53;;;-4.80;99.90;;;-6.72;100.00;98250.28;5032245;28;20548;-76
2022/12/17 15:55:20;;;;;;;162.25;63.13;;;-4.90;99.90;;;-6.78;100.00;98248.19;5028637;28;20409;-77
2022/12/17 15:57:46;;;;;;;195.50;70.40;;;-5.00;99.90;;;-6.81;100.00;98253.56;5044883;28;20413;-76
2022/12/17 16:00:14;;;;;;;176.75;67.07;;;-5.00;99.90;;;-6.86;100.00;98247.97;5037955;28;20889;-78
2022/12/17 16:02:41;;;;;;;177.50;64.93;;;-5.00;99.90;;;-6.89;100.00;98252.53;5041683;28;20413;-75
2022/12/17 16:05:08;;;;;;;165.33;61.97;;;-5.10;99.90;;;-6.93;100.00;98254.53;5049497;28;20507;-77
2022/12/17 16:07:34;;;;;;;191.60;68.72;;;-5.10;99.90;;;-6.94;100.00;98260.63;5030650;28;20898;-76
2022/12/17 16:10:00;;;;;;;177.05;68.78;;;-5.10;99.90;;;-6.93;100.00;98261.44;5048042;28;20776;-75
2022/12/17 16:12:26;;;;;;;148.65;57.55;;;-5.10;99.90;;;-6.97;100.00;98260.03;5044103;28;20839;-75
2022/12/17 16:14:52;;;;;;;157.02;58.72;;;-5.10;99.90;;;-6.99;100.00;98265.28;5047078;28;20417;-76
2022/12/17 16:17:19;;;;;;;155.77;60.72;;;-5.20;99.90;;;-6.99;100.00;98275.59;5048038;28;20413;-74
2022/12/17 16:19:45;;;;;;;139.63;57.22;;;-5.20;99.90;;;-7.01;100.00;98271.50;5039623;28;20401;-77
2022/12/17 16:22:11;;;;;;;144.02;58.95;;;-5.20;99.90;;;-7.02;100.00;98268.13;5048298;28;20496;-73
2022/12/17 16:24:37;;;;;;;159.90;62.37;;;-5.20;99.90;;;-7.03;100.00;98272.44;5048999;28;20500;-74
2022/12/17 16:27:03;;;;;;;135.40;54.08;;;-5.20;99.90;;;-7.04;100.00;98272.56;5049025;28;20402;-73
2022/12/17 16:29:29;;;;;;;131.40;53.80;;;-5.20;99.90;;;-7.07;100.00;98271.03;5049279;28;20978;-74
2022/12/17 16:31:55;;;;;;;129.63;53.35;;;-5.20;99.90;;;-7.10;100.00;98265.31;5047843;28;20402;-75
2022/12/17 16:34:22;;;;;;;139.77;57.88;;;-5.30;99.90;;;-7.12;100.00;98267.19;5048441;28;20406;-74
2022/12/17 16:36:48;;;;;;;121.32;54.05;;;-5.30;99.90;;;-7.17;100.00;98272.69;5048995;28;20891;-73
2022/12/17 16:39:16;;;;;;;127.75;53.72;;;-5.30;99.90;;;-7.20;100.00;98269.53;5030603;28;20409;-75
2022/12/17 16:41:43;;;;;;;133.57;56.15;;;-5.30;99.90;;;-7.23;100.00;98269.78;5048886;28;20408;-74
2022/12/17 16:44:10;;;;;;;133.43;54.45;;;-5.40;99.90;;;-7.24;100.00;98265.56;5030811;28;20455;-74
2022/12/17 16:46:39;;;;;;;125.55;51.70;;;-5.40;99.90;;;-7.27;100.00;98268.38;5030481;28;20417;-81
2022/12/17 16:49:08;;;;;;;114.65;47.53;;;-5.50;99.90;;;-7.31;100.00;98272.94;5049055;28;20459;-77
2022/12/17 16:51:35;;;;;;;117.18;51.38;;;-5.50;99.90;;;-7.34;100.00;98274.94;5048662;28;20526;-77
2022/12/17 16:54:06;;;;;;;101.63;42.92;;;-5.50;99.90;;;-7.34;100.00;98269.78;5048911;28;20428;-77
2022/12/17 16:56:33;;;;;;;121.45;53.17;;;-5.50;99.90;;;-7.33;100.00;98277.38;5047218;28;20436;-76
2022/12/17 16:59:03;;;;;;;126.22;52.80;;;-5.50;99.90;;;-7.33;100.00;98279.13;5048658;28;20393;-76
2022/12/17 17:01:29;;;;;;;125.25;52.90;;;-5.50;99.90;;;-7.35;100.00;98270.72;5050158;28;20397;-77
2022/12/17 17:03:56;;;;;;;119.68;53.85;;;-5.50;99.90;;;-7.36;100.00;98272.47;5052369;28;20424;-76
2022/12/17 17:06:23;;;;;;;114.38;51.55;;;-5.50;99.90;;;-7.38;100.00;98274.34;5034844;28;20421;-77
2022/12/17 17:08:50;;;;;;;114.30;51.97;;;-5.50;99.90;;;-7.38;100.00;98274.34;5046656;28;20414;-77
2022/12/17 17:11:20;;;;;;;110.05;48.97;;;-5.60;99.90;;;-7.38;100.00;98273.53;5038828;28;20410;-76
2022/12/17 17:13:48;;;;;;;94.95;44.05;;;-5.50;99.90;;;-7.40;100.00;98273.66;5044937;28;20433;-76
2022/12/17 17:16:14;;;;;;;111.03;49.95;;;-5.60;99.90;;;-7.40;100.00;98283.13;5046450;28;20479;-74
2022/12/17 17:18:40;;;;;;;103.55;47.88;;;-5.50;99.90;;;-7.41;100.00;98279.72;5036524;28;20422;-74
2022/12/17 17:21:14;;;;;;;107.55;48.72;;;-5.50;99.90;;;-7.41;100.00;98287.44;5048590;28;20443;-75
2022/12/17 17:23:40;;;;;;;161.30;69.45;;;-5.60;99.90;;;-7.27;100.00;98288.94;5039066;28;20398;-77
2022/12/17 17:26:08;;;;;;;155.00;66.65;;;-5.50;99.90;;;-7.19;100.00;98292.56;5041366;28;20414;-77
2022/12/17 17:28:34;;;;;;;160.68;69.70;;;-5.40;99.90;;;-7.10;100.00;98293.63;5046971;28;20397;-76
2022/12/17 17:31:00;;;;;;;154.27;64.03;;;-5.30;99.90;;;-7.11;100.00;98300.53;5026388;28;20441;-77
2022/12/17 17:33:28;;;;;;;162.63;68.43;;;-5.30;99.90;;;-7.04;100.00;98301.69;5051037;28;20402;-77
2022/12/17 17:35:54;;;;;;;162.98;70.25;;;-5.30;99.90;;;-7.02;100.00;98296.44;5051657;28;20910;-77
2022/12/17 17:38:20;;;;;;;161.30;64.13;;;-5.30;99.90;;;-7.06;100.00;98290.69;5052051;28;20547;-77
2022/12/17 17:40:46;;;;;;;155.13;65.03;;;-5.30;99.90;;;-7.11;100.00;98294.56;5046889;28;20464;-76
2022/12/17 17:43:13;;;;;;;144.18;63.22;;;-5.30;99.90;;;-7.15;100.00;98300.88;5051227;28;20812;-76
2022/12/17 17:45:41;;;;;;;127.60;54.00;;;-5.40;99.90;;;-7.23;100.00;98296.34;5034022;28;20787;-77
2022/12/17 17:48:07;;;;;;;129.07;54.43;;;-5.40;99.90;;;-7.26;100.00;98304.28;5051890;28;20401;-77
2022/12/17 17:50:33;;;;;;;142.48;60.60;;;-5.40;99.90;;;-7.28;100.00;98302.75;5042379;28;20415;-77
2022/12/17 17:52:59;;;;;;;152.05;62.25;;;-5.50;99.90;;;-7.26;100.00;98306.03;5035558;28;20399;-76
2022/12/17 17:55:25;;;;;;;140.27;62.92;;;-5.50;99.90;;;-7.28;100.00;98311.28;5032876;28;20414;-76
2022/12/17 17:57:52;;;;;;;126.90;57.30;;;-5.50;99.90;;;-7.29;100.00;98316.56;5051616;28;20857;-77
2022/12/17 18:00:19;;;;;;;139.45;59.10;;;-5.50;99.90;;;-7.28;100.00;98310.47;5051899;28;20401;-80
2022/12/17 18:02:45;;;;;;;138.38;62.08;;;-5.50;99.90;;;-7.32;100.00;98309.06;5051581;28;20428;-79
2022/12/17 18:05:11;;;;;;;122.50;54.90;;;-5.50;99.90;;;-7.34;100.00;98305.78;5051804;28;20988;-74
2022/12/17 18:07:37;;;;;;;112.68;52.60;;;-5.60;99.90;;;-7.39;100.00;98301.00;5051870;28;20401;-74
2022/12/17 18:10:04;;;;;;;110.63;50.67;;;-5.60;99.90;;;-7.41;100.00;98310.56;5051582;28;20466;-74
2022/12/17 18:15:15;;;;;;;93.85;44.85;;;-5.60;99.90;;;-7.48;100.00;98312.78;5051489;28;20913;-74
2022/12/17 18:17:43;;;;;;;90.30;43.05;;;-5.60;99.90;;;-7.49;100.00;98320.63;5065172;22;20565;-75
2022/12/17 18:20:10;;;;;;;97.50;43.22;;;-5.70;99.90;;;-7.53;100.00;98322.63;5050324;28;20529;-76
2022/12/17 18:22:36;;;;;;;100.13;46.50;;;-5.70;99.90;;;-7.54;100.00;98315.00;5056968;28;20407;-74
2022/12/17 18:25:02;;;;;;;94.85;43.05;;;-5.70;99.90;;;-7.58;100.00;98311.03;5053247;28;20793;-74
2022/12/17 18:27:28;;;;;;;95.95;44.35;;;-5.70;99.90;;;-7.63;100.00;98313.94;5069125;28;20411;-76
2022/12/17 18:29:54;;;;;;;108.80;48.30;;;-5.80;99.90;;;-7.65;100.00;98310.66;5051121;28;20402;-76
2022/12/17 18:32:20;;;;;;;89.45;41.25;;;-5.80;99.90;;;-7.70;100.00;98306.81;5046566;28;20800;-77
2022/12/17 18:34:47;;;;;;;87.90;40.00;;;-5.80;99.90;;;-7.74;100.00;98311.34;5030370;28;20399;-77
2022/12/17 18:37:13;;;;;;;92.97;41.65;;;-5.90;99.90;;;-7.75;100.00;98314.88;5029031;28;20844;-77
2022/12/17 18:39:39;;;;;;;93.32;41.08;;;-5.90;99.90;;;-7.78;100.00;98312.50;5030634;28;20410;-77
2022/12/17 18:44:49;;;;;;;92.25;40.78;;;-6.00;99.90;;;-7.83;100.00;98322.31;5026397;28;20935;-74
2022/12/17 18:47:15;;;;;;;89.77;41.73;;;-6.00;99.90;;;-7.84;100.00;98320.69;5029212;28;20486;-76
2022/12/17 18:49:44;;;;;;;108.22;46.17;;;-6.00;99.90;;;-7.84;100.00;98330.97;5025596;28;20469;-74
2022/12/17 18:52:11;;;;;;;93.45;41.80;;;-6.00;99.90;;;-7.88;100.00;98338.06;5022390;28;20400;-75
2022/12/17 18:54:45;;;;;;;103.15;43.97;;;-6.00;99.90;;;-7.92;100.00;98340.97;5018093;28;20444;-73
2022/12/17 18:57:13;;;;;;;88.70;40.88;;;-6.10;99.90;;;-7.94;100.00;98341.09;5023917;28;20412;-77
2022/12/17 18:59:44;;;;;;;99.10;43.97;;;-6.10;99.90;;;-7.97;100.00;98345.66;5016338;28;20450;-79
2022/12/17 19:02:13;;;;;;;98.73;44.83;;;-6.10;99.90;;;-8.00;100.00;98351.00;4994801;28;20487;-76
2022/12/17 19:04:49;;;;;;;89.28;41.50;;;-6.10;99.90;;;-8.04;100.00;98345.25;5003336;28;20470;-76
2022/12/17 19:07:17;;;;;;;100.85;43.05;;;-6.20;99.90;;;-8.07;100.00;98352.38;5002712;28;20507;-77
2022/12/17 19:09:43;;;;;;;90.10;40.60;;;-6.20;99.90;;;-8.08;100.00;98353.28;5025398;28;20411;-78
2022/12/17 19:12:11;;;;;;;85.13;39.47;;;-6.20;99.90;;;-8.11;100.00;98345.81;5020759;28;20500;-76
2022/12/17 19:14:41;;;;;;;108.28;44.65;;;-6.30;99.90;;;-8.13;100.00;98345.94;5005424;28;20477;-76
2022/12/17 19:17:09;;;;;;;108.97;45.03;;;-6.20;99.90;;;-8.15;100.00;98349.53;5003236;28;20938;-77
2022/12/17 19:19:40;;;;;;;92.60;41.03;;;-6.30;99.90;;;-8.20;100.00;98342.19;5013627;28;20504;-76
2022/12/17 19:22:09;;;;;;;104.53;43.65;;;-6.30;99.90;;;-8.23;100.00;98347.53;5006087;28;20415;-78
2022/12/17 19:24:37;;;;;;;88.13;39.27;;;-6.30;99.90;;;-8.27;100.00;98349.47;5018138;28;20437;-77
2022/12/17 19:27:03;;;;;;;84.10;38.28;;;-6.40;99.90;;;-8.30;100.00;98354.84;5002860;28;21120;-76
2022/12/17 19:29:29;;;;;;;87.57;38.83;;;-6.40;99.90;;;-8.30;100.00;98367.69;5001152;28;20451;-76
2022/12/17 19:31:59;;;;;;;84.40;39.22;;;-6.40;99.90;;;-8.31;100.00;98375.53;5020618;28;20917;-77
2022/12/17 19:34:25;;;;;;;95.90;40.63;;;-6.40;99.90;;;-8.32;100.00;98381.59;5018590;28;20463;-77
2022/12/17 19:36:54;;;;;;;84.85;38.45;;;-6.40;99.90;;;-8.36;100.00;98375.88;5020099;28;20418;-77
2022/12/17 19:39:20;;;;;;;89.60;40.45;;;-6.50;99.90;;;-8.36;100.00;98380.19;5019971;28;20404;-76
2022/12/17 19:42:02;;;;;;;91.22;40.35;;;-6.50;99.90;;;-8.38;100.00;98389.72;5023991;28;20875;-75
2022/12/17 19:44:30;;;;;;;92.45;41.58;;;-6.50;99.90;;;-8.38;100.00;98382.03;5017635;28;20507;-77
2022/12/17 19:46:57;;;;;;;95.63;42.63;;;-6.50;99.90;;;-8.35;100.00;98394.66;5023778;28;20403;-76
2022/12/17 19:49:23;;;;;;;119.32;49.33;;;-6.50;99.90;;;-8.31;100.00;98391.75;5013381;28;20920;-77
2022/12/17 19:51:51;;;;;;;136.13;56.60;;;-6.40;99.90;;;-8.22;100.00;98388.50;5021099;28;20463;-76
2022/12/17 19:54:23;;;;;;;141.80;59.10;;;-6.30;99.90;;;-8.14;100.00;98390.53;5015816;28;20409;-76
2022/12/17 19:59:31;;;;;;;143.02;60.65;;;-6.20;99.90;;;-7.84;100.00;98378.03;5048790;22;20578;-76
2022/12/17 20:02:02;;;;;;;133.18;55.95;;;-6.10;99.90;;;-7.78;100.00;98378.50;5037687;28;20491;-76
2022/12/17 20:04:31;;;;;;;150.50;62.03;;;-6.00;99.90;;;-7.74;100.00;98378.16;5039699;28;20404;-75
2022/12/17 20:06:59;;;;;;;131.50;57.67;;;-6.00;99.90;;;-7.71;100.00;98379.69;5036959;28;20906;-75
2022/12/17 20:09:28;;;;;;;132.95;55.72;;;-5.90;99.90;;;-7.72;100.00;98378.88;5037849;28;20403;-74
2022/12/17 20:11:53;;;;;;;132.18;57.13;;;-5.90;99.90;;;-7.74;100.00;98382.50;5036942;28;20555;-76
2022/12/17 20:14:25;;;;;;;131.25;55.25;;;-5.90;99.90;;;-7.72;100.00;98383.19;5029930;28;20411;-76
2022/12/17 20:17:03;;;;;;;135.25;56.63;;;-5.90;99.90;;;-7.72;100.00;98384.03;5037060;28;20442;-75
2022/12/17 20:19:32;;;;;;;136.20;55.93;;;-5.90;99.90;;;-7.75;100.00;98378.31;5034235;28;20787;-77
2022/12/17 20:22:03;;;;;;;133.00;56.90;;;-6.00;99.90;;;-7.77;100.00;98375.84;5028503;28;20769;-76
2022/12/17 20:24:29;;;;;;;128.07;55.10;;;-6.00;99.90;;;-7.78;100.00;98374.19;5031960;28;20571;-76
2022/12/17 20:26:59;;;;;;;124.63;53.33;;;-6.00;99.90;;;-7.86;100.00;98374.75;5020609;28;20406;-76
2022/12/17 20:29:25;;;;;;;127.32;54.90;;;-6.10;99.90;;;-7.88;100.00;98384.31;5024145;28;20962;-75
2022/12/17 20:31:55;;;;;;;125.13;54.50;;;-6.10;99.90;;;-7.88;100.00;98375.78;5029888;28;20777;-76
2022/12/17 20:34:21;;;;;;;136.18;56.70;;;-6.10;99.90;;;-7.84;100.00;98372.91;5029996;28;20420;-76
2022/12/17 20:36:51;;;;;;;139.85;56.85;;;-6.00;99.90;;;-7.80;100.00;98381.19;5033433;28;20905;-75
2022/12/17 20:39:17;;;;;;;131.55;55.50;;;-6.00;99.90;;;-7.80;100.00;98373.47;5039797;28;20413;-75
2022/12/17 20:41:50;;;;;;;131.68;56.65;;;-6.00;99.90;;;-7.76;100.00;98366.38;5040600;28;20433;-74
2022/12/17 20:44:21;;;;;;;119.95;53.85;;;-6.00;99.90;;;-7.82;100.00;98368.44;5040871;28;20413;-74
2022/12/17 20:46:47;;;;;;;127.18;55.28;;;-6.00;99.90;;;-7.83;100.00;98371.16;5045205;28;20402;-75
2022/12/17 20:49:15;;;;;;;126.18;55.13;;;-6.10;99.90;;;-7.86;100.00;98369.63;5044969;28;20409;-75
2022/12/17 20:51:41;;;;;;;124.45;53.35;;;-6.10;99.90;;;-7.87;100.00;98367.97;5044609;28;20538;-74
2022/12/17 20:54:08;;;;;;;124.93;53.80;;;-6.10;99.90;;;-7.85;100.00;98375.56;5044647;28;20418;-74
2022/12/17 20:56:35;;;;;;;128.52;55.65;;;-6.10;99.90;;;-7.90;100.00;98380.25;5044503;28;20421;-75
2022/12/17 20:59:04;;;;;;;124.70;54.80;;;-6.10;99.90;;;-7.91;100.00;98383.72;5026198;28;20832;-74
2022/12/17 21:01:33;;;;;;;115.13;51.03;;;-6.10;99.90;;;-8.03;100.00;98382.84;5025921;28;20457;-75
2022/12/17 21:04:00;;;;;;;125.30;52.67;;;-6.20;99.90;;;-8.05;100.00;98384.72;5023006;28;20407;-75
2022/12/17 21:06:31;;;;;;;128.27;52.72;;;-6.30;99.90;;;-8.09;100.00;98385.88;5023519;28;20415;-74
2022/12/17 21:08:57;;;;;;;131.37;55.97;;;-6.30;99.90;;;-8.07;100.00;98384.03;5021447;28;20494;-74
2022/12/17 21:11:26;;;;;;;133.13;53.08;;;-6.30;99.90;;;-8.09;100.00;98373.03;5023871;28;20759;-73
2022/12/17 21:13:54;;;;;;;126.20;51.95;;;-6.30;99.90;;;-8.10;100.00;98373.13;5031004;28;20411;-74
2022/12/17 21:16:23;;;;;;;126.07;53.55;;;-6.30;99.90;;;-8.03;100.00;98379.47;5028124;28;20437;-75
2022/12/17 21:18:52;;;;;;;127.65;53.13;;;-6.30;99.90;;;-8.03;100.00;98380.28;5018020;28;20616;-74
2022/12/17 21:21:21;;;;;;;126.88;52.17;;;-6.30;99.90;;;-8.02;100.00;98371.66;5026765;28;20446;-74
2022/12/17 21:23:49;;;;;;;126.55;54.08;;;-6.20;99.90;;;-8.01;100.00;98368.16;5027796;28;20781;-75
2022/12/17 21:26:20;;;;;;;118.97;52.55;;;-6.20;99.90;;;-8.01;100.00;98372.47;5031882;28;20396;-73
2022/12/17 21:28:48;;;;;;;125.10;53.72;;;-6.20;99.90;;;-8.02;100.00;98376.78;5025470;28;20741;-73
2022/12/17 21:31:16;;;;;;;119.85;52.95;;;-6.20;99.90;;;-8.06;100.00;98377.94;5031346;28;20414;-75
2022/12/17 21:33:43;;;;;;;126.47;53.45;;;-6.30;99.90;;;-8.12;100.00;98378.41;5031482;28;20403;-75
2022/12/17 21:36:09;;;;;;;119.10;51.63;;;-6.30;99.90;;;-8.19;100.00;98379.75;5031546;28;20418;-74
2022/12/17 21:38:36;;;;;;;113.75;48.53;;;-6.40;99.90;;;-8.23;100.00;98380.91;5031347;28;20406;-74
2022/12/17 21:41:06;;;;;;;121.60;50.37;;;-6.40;99.90;;;-8.25;100.00;98386.13;5029710;28;20434;-76
2022/12/17 21:43:33;;;;;;;119.68;50.42;;;-6.40;99.90;;;-8.25;100.00;98386.13;5028535;28;20489;-74
2022/12/17 21:45:59;;;;;;;115.20;49.13;;;-6.40;99.90;;;-8.31;100.00;98385.78;5030477;28;20407;-75
2022/12/17 21:48:25;;;;;;;118.53;49.30;;;-6.50;99.90;;;-8.36;100.00;98372.47;5030512;28;20437;-75
2022/12/17 21:50:52;;;;;;;124.63;52.28;;;-6.50;99.90;;;-8.35;100.00;98379.25;5030429;28;20798;-74
2022/12/17 21:53:18;;;;;;;121.38;51.78;;;-6.50;99.90;;;-8.40;100.00;98381.31;5029576;28;20896;-76
2022/12/17 21:55:44;;;;;;;120.07;49.97;;;-6.60;99.90;;;-8.41;100.00;98395.06;5031066;28;20415;-75
2022/12/17 21:58:11;;;;;;;119.60;50.55;;;-6.60;99.90;;;-8.42;100.00;98399.38;5030508;28;20407;-74
2022/12/17 22:00:37;;;;;;;123.22;52.22;;;-6.60;99.90;;;-8.42;100.00;98391.66;5030778;28;20403;-74
2022/12/17 22:03:03;;;;;;;127.25;50.92;;;-6.60;99.90;;;-8.46;100.00;98397.13;5030437;28;20497;-73
2022/12/17 22:05:29;;;;;;;122.37;52.43;;;-6.60;99.90;;;-8.44;100.00;98393.53;5031020;28;20487;-71
2022/12/17 22:07:55;;;;;;;130.52;54.63;;;-6.60;99.90;;;-8.41;100.00;98397.63;5030938;28;20835;-73
2022/12/17 22:10:21;;;;;;;130.00;51.90;;;-6.60;99.90;;;-8.38;100.00;98397.44;5031051;28;20406;-72
2022/12/17 22:15:33;;;;;;;114.60;49.42;;;-6.60;99.90;;;-8.40;100.00;98410.38;5030779;28;20434;-74
2022/12/17 22:17:59;;;;;;;122.00;50.15;;;-6.60;99.90;;;-8.36;100.00;98410.97;5030904;28;20415;-72
2022/12/17 22:20:25;;;;;;;115.00;51.10;;;-6.50;99.90;;;-8.35;100.00;98402.34;5029175;28;20777;-73
2022/12/17 22:22:51;;;;;;;121.30;50.43;;;-6.50;99.90;;;-8.33;100.00;98395.34;5029388;28;20403;-73
2022/12/17 22:25:17;;;;;;;112.93;47.53;;;-6.50;99.90;;;-8.34;100.00;98399.66;5030885;28;20931;-74
2022/12/17 22:27:43;;;;;;;97.93;43.05;;;-6.50;99.90;;;-8.36;100.00;98395.56;5030689;28;20761;-72
2022/12/17 22:33:01;;;;;;;76.85;35.47;;;-6.50;99.90;;;-8.46;100.00;98397.97;5029047;28;20421;-73
2022/12/17 22:35:33;;;;;;;92.10;39.85;;;-6.60;99.90;;;-8.50;100.00;98409.38;5029931;28;20457;-72
2022/12/17 22:38:00;;;;;;;84.63;37.40;;;-6.60;99.90;;;-8.55;100.00;98408.88;5030516;28;20426;-72
2022/12/17 22:40:26;;;;;;;84.47;35.73;;;-6.70;99.90;;;-8.60;100.00;98405.81;5030441;28;20401;-72
2022/12/17 22:45:38;;;;;;;70.90;32.42;;;-6.80;99.90;;;-8.69;100.00;98404.69;5030405;28;20719;-71
2022/12/17 22:48:07;;;;;;;67.00;32.25;;;-6.80;99.90;;;-8.70;100.00;98404.78;5030040;28;20889;-71
2022/12/17 22:50:33;;;;;;;76.00;33.70;;;-6.80;99.90;;;-8.72;100.00;98401.53;5029892;28;20441;-71
2022/12/17 22:52:59;;;;;;;71.20;33.95;;;-6.80;99.90;;;-8.75;100.00;98394.88;5029105;28;20541;-71
2022/12/17 22:55:26;;;;;;;76.43;32.85;;;-6.80;99.90;;;-8.77;100.00;98396.72;5030143;28;20432;-73
2022/12/17 22:57:51;;;;;;;83.35;36.78;;;-6.90;99.90;;;-8.80;100.00;98396.94;5027685;28;20801;-72
2022/12/17 23:00:23;;;;;;;75.07;34.78;;;-6.90;99.90;;;-8.82;100.00;98393.66;5029972;28;20407;-72
2022/12/17 23:02:52;;;;;;;66.90;31.75;;;-6.90;99.90;;;-8.85;100.00;98391.28;5027388;28;20809;-72
2022/12/17 23:05:19;;;;;;;72.13;33.58;;;-6.90;99.90;;;-8.88;100.00;98400.94;5029819;28;21236;-72
2022/12/17 23:07:46;;;;;;;76.47;35.80;;;-7.00;99.90;;;-8.90;100.00;98398.47;5027698;28;20924;-72
2022/12/17 23:10:11;;;;;;;89.18;40.33;;;-7.00;99.90;;;-8.92;100.00;98394.38;5029978;28;20734;-72
2022/12/17 23:12:49;;;;;;;78.65;36.40;;;-7.00;99.90;;;-8.94;100.00;98389.34;5028928;28;20405;-73
2022/12/17 23:15:15;;;;;;;83.90;38.45;;;-7.00;99.90;;;-8.96;100.00;98391.22;5029978;28;20533;-72
2022/12/17 23:17:41;;;;;;;77.72;34.78;;;-7.00;99.90;;;-8.99;100.00;98391.41;5029008;28;20419;-75
2022/12/17 23:20:09;;;;;;;75.50;34.27;;;-7.00;99.90;;;-9.00;100.00;98394.88;5029299;28;20881;-74
2022/12/17 23:22:36;;;;;;;91.20;38.75;;;-7.10;99.90;;;-9.02;100.00;98410.38;5025980;28;20473;-75
2022/12/17 23:25:03;;;;;;;90.73;39.97;;;-7.10;99.90;;;-9.04;100.00;98419.94;5029446;28;20943;-73